sensor_id;sensor_type;location;lat;lon;timestamp;P1;durP1;ratioP1;P2;durP2;ratioP2
40599;SDS011;26309;50.924;4.754;2023-05-16T00:00:33;23.37;;;3.90;;
40599;SDS011;26309;50.924;4.754;2023-05-16T00:03:00;15.87;;;4.40;;
40599;SDS011;26309;50.924;4.754;2023-05-16T00:05:27;23.60;;;4.33;;
40599;SDS011;26309;50.924;4.754;2023-05-16T00:07:53;19.67;;;4.00;;
40599;SDS011;26309;50.924;4.754;2023-05-16T00:10:19;24.43;;;4.10;;
40599;SDS011;26309;50.924;4.754;2023-05-16T00:12:45;20.70;;;4.60;;
40599;SDS011;26309;50.924;4.754;2023-05-16T00:15:15;17.23;;;4.10;;
40599;SDS011;26309;50.924;4.754;2023-05-16T00:17:42;15.50;;;3.97;;
40599;SDS011;26309;50.924;4.754;2023-05-16T00:20:10;16.57;;;4.20;;
40599;SDS011;26309;50.924;4.754;2023-05-16T00:22:41;18.97;;;4.23;;
40599;SDS011;26309;50.924;4.754;2023-05-16T00:25:08;13.73;;;4.07;;
40599;SDS011;26309;50.924;4.754;2023-05-16T00:27:34;24.67;;;4.60;;
40599;SDS011;26309;50.924;4.754;2023-05-16T00:30:03;16.33;;;4.60;;
40599;SDS011;26309;50.924;4.754;2023-05-16T00:32:30;21.30;;;3.70;;
40599;SDS011;26309;50.924;4.754;2023-05-16T00:34:56;24.40;;;4.30;;
40599;SDS011;26309;50.924;4.754;2023-05-16T00:37:22;20.67;;;3.83;;
40599;SDS011;26309;50.924;4.754;2023-05-16T00:39:48;16.17;;;3.53;;
40599;SDS011;26309;50.924;4.754;2023-05-16T00:42:14;26.70;;;3.80;;
40599;SDS011;26309;50.924;4.754;2023-05-16T00:44:40;23.53;;;4.07;;
40599;SDS011;26309;50.924;4.754;2023-05-16T00:47:06;16.73;;;3.57;;
40599;SDS011;26309;50.924;4.754;2023-05-16T00:49:32;14.87;;;4.20;;
40599;SDS011;26309;50.924;4.754;2023-05-16T00:51:58;20.80;;;4.40;;
40599;SDS011;26309;50.924;4.754;2023-05-16T00:54:25;18.40;;;4.17;;
40599;SDS011;26309;50.924;4.754;2023-05-16T00:56:56;12.20;;;3.60;;
40599;SDS011;26309;50.924;4.754;2023-05-16T00:59:22;19.10;;;4.30;;
40599;SDS011;26309;50.924;4.754;2023-05-16T01:01:49;17.70;;;4.63;;
40599;SDS011;26309;50.924;4.754;2023-05-16T01:04:16;20.37;;;4.03;;
40599;SDS011;26309;50.924;4.754;2023-05-16T01:06:43;24.90;;;3.57;;
40599;SDS011;26309;50.924;4.754;2023-05-16T01:09:09;16.80;;;3.83;;
40599;SDS011;26309;50.924;4.754;2023-05-16T01:11:49;18.30;;;4.37;;
40599;SDS011;26309;50.924;4.754;2023-05-16T01:15:20;21.33;;;3.97;;
40599;SDS011;26309;50.924;4.754;2023-05-16T01:23:12;21.43;;;4.47;;
40599;SDS011;26309;50.924;4.754;2023-05-16T01:28:40;23.70;;;3.90;;
40599;SDS011;26309;50.924;4.754;2023-05-16T01:31:08;18.77;;;4.43;;
40599;SDS011;26309;50.924;4.754;2023-05-16T01:33:34;18.63;;;3.80;;
40599;SDS011;26309;50.924;4.754;2023-05-16T01:36:02;19.27;;;4.33;;
40599;SDS011;26309;50.924;4.754;2023-05-16T01:38:43;14.93;;;3.73;;
40599;SDS011;26309;50.924;4.754;2023-05-16T01:41:20;9.83;;;3.53;;
40599;SDS011;26309;50.924;4.754;2023-05-16T01:44:00;20.63;;;4.50;;
40599;SDS011;26309;50.924;4.754;2023-05-16T01:46:33;20.97;;;3.70;;
40599;SDS011;26309;50.924;4.754;2023-05-16T01:52:04;17.53;;;4.27;;
40599;SDS011;26309;50.924;4.754;2023-05-16T01:54:36;18.20;;;4.00;;
40599;SDS011;26309;50.924;4.754;2023-05-16T01:57:04;18.67;;;4.10;;
40599;SDS011;26309;50.924;4.754;2023-05-16T01:59:33;23.70;;;3.70;;
40599;SDS011;26309;50.924;4.754;2023-05-16T02:02:00;19.83;;;4.00;;
40599;SDS011;26309;50.924;4.754;2023-05-16T02:04:26;16.30;;;3.97;;
40599;SDS011;26309;50.924;4.754;2023-05-16T02:06:52;19.63;;;4.43;;
40599;SDS011;26309;50.924;4.754;2023-05-16T02:09:18;20.77;;;4.13;;
40599;SDS011;26309;50.924;4.754;2023-05-16T02:11:44;13.33;;;3.43;;
40599;SDS011;26309;50.924;4.754;2023-05-16T02:14:11;18.20;;;4.03;;
40599;SDS011;26309;50.924;4.754;2023-05-16T02:16:37;25.80;;;4.30;;
40599;SDS011;26309;50.924;4.754;2023-05-16T02:19:03;22.03;;;4.00;;
40599;SDS011;26309;50.924;4.754;2023-05-16T02:21:29;23.47;;;3.87;;
40599;SDS011;26309;50.924;4.754;2023-05-16T02:23:55;18.57;;;3.50;;
40599;SDS011;26309;50.924;4.754;2023-05-16T02:26:21;20.83;;;3.73;;
40599;SDS011;26309;50.924;4.754;2023-05-16T02:28:47;23.67;;;3.70;;
40599;SDS011;26309;50.924;4.754;2023-05-16T02:31:26;16.27;;;3.40;;
40599;SDS011;26309;50.924;4.754;2023-05-16T02:33:53;14.37;;;3.77;;
40599;SDS011;26309;50.924;4.754;2023-05-16T02:36:19;18.70;;;3.70;;
40599;SDS011;26309;50.924;4.754;2023-05-16T02:38:45;13.73;;;3.53;;
40599;SDS011;26309;50.924;4.754;2023-05-16T02:41:11;15.13;;;3.30;;
40599;SDS011;26309;50.924;4.754;2023-05-16T02:43:37;12.83;;;3.80;;
40599;SDS011;26309;50.924;4.754;2023-05-16T02:46:22;22.37;;;4.20;;
40599;SDS011;26309;50.924;4.754;2023-05-16T02:48:55;19.13;;;3.97;;
40599;SDS011;26309;50.924;4.754;2023-05-16T02:51:23;14.23;;;3.50;;
40599;SDS011;26309;50.924;4.754;2023-05-16T02:53:49;17.30;;;4.10;;
40599;SDS011;26309;50.924;4.754;2023-05-16T02:56:16;15.43;;;3.67;;
40599;SDS011;26309;50.924;4.754;2023-05-16T02:58:45;15.70;;;3.67;;
40599;SDS011;26309;50.924;4.754;2023-05-16T03:01:12;23.10;;;4.00;;
40599;SDS011;26309;50.924;4.754;2023-05-16T03:03:38;27.40;;;4.17;;
40599;SDS011;26309;50.924;4.754;2023-05-16T03:06:04;13.67;;;3.80;;
40599;SDS011;26309;50.924;4.754;2023-05-16T03:08:31;15.00;;;3.67;;
40599;SDS011;26309;50.924;4.754;2023-05-16T03:10:57;17.73;;;3.80;;
40599;SDS011;26309;50.924;4.754;2023-05-16T03:13:23;22.03;;;4.50;;
40599;SDS011;26309;50.924;4.754;2023-05-16T03:15:49;19.27;;;4.17;;
40599;SDS011;26309;50.924;4.754;2023-05-16T03:18:15;20.87;;;4.20;;
40599;SDS011;26309;50.924;4.754;2023-05-16T03:20:41;16.43;;;4.03;;
40599;SDS011;26309;50.924;4.754;2023-05-16T03:23:07;24.87;;;4.67;;
40599;SDS011;26309;50.924;4.754;2023-05-16T03:25:33;20.07;;;3.97;;
40599;SDS011;26309;50.924;4.754;2023-05-16T03:28:00;26.80;;;4.27;;
40599;SDS011;26309;50.924;4.754;2023-05-16T03:30:27;18.80;;;4.10;;
40599;SDS011;26309;50.924;4.754;2023-05-16T03:32:53;20.10;;;4.30;;
40599;SDS011;26309;50.924;4.754;2023-05-16T03:35:19;18.70;;;4.20;;
40599;SDS011;26309;50.924;4.754;2023-05-16T03:37:45;22.23;;;3.87;;
40599;SDS011;26309;50.924;4.754;2023-05-16T03:40:11;13.20;;;3.63;;
40599;SDS011;26309;50.924;4.754;2023-05-16T03:42:37;17.60;;;3.80;;
40599;SDS011;26309;50.924;4.754;2023-05-16T03:45:06;28.23;;;4.97;;
40599;SDS011;26309;50.924;4.754;2023-05-16T03:47:33;19.43;;;4.17;;
40599;SDS011;26309;50.924;4.754;2023-05-16T03:49:59;15.37;;;3.73;;
40599;SDS011;26309;50.924;4.754;2023-05-16T03:52:24;11.87;;;3.60;;
40599;SDS011;26309;50.924;4.754;2023-05-16T03:54:50;10.07;;;3.80;;
40599;SDS011;26309;50.924;4.754;2023-05-16T03:57:16;16.37;;;4.17;;
40599;SDS011;26309;50.924;4.754;2023-05-16T03:59:42;21.70;;;3.73;;
40599;SDS011;26309;50.924;4.754;2023-05-16T04:02:08;17.63;;;3.43;;
40599;SDS011;26309;50.924;4.754;2023-05-16T04:04:34;24.20;;;4.07;;
40599;SDS011;26309;50.924;4.754;2023-05-16T04:07:00;9.37;;;3.33;;
40599;SDS011;26309;50.924;4.754;2023-05-16T04:09:27;18.10;;;4.13;;
40599;SDS011;26309;50.924;4.754;2023-05-16T04:11:53;22.23;;;4.40;;
40599;SDS011;26309;50.924;4.754;2023-05-16T04:14:22;17.47;;;4.33;;
40599;SDS011;26309;50.924;4.754;2023-05-16T04:16:48;20.07;;;4.47;;
40599;SDS011;26309;50.924;4.754;2023-05-16T04:19:14;18.17;;;4.93;;
40599;SDS011;26309;50.924;4.754;2023-05-16T04:21:40;22.57;;;4.40;;
40599;SDS011;26309;50.924;4.754;2023-05-16T04:24:06;16.27;;;4.27;;
40599;SDS011;26309;50.924;4.754;2023-05-16T04:26:32;16.23;;;4.03;;
40599;SDS011;26309;50.924;4.754;2023-05-16T04:28:58;20.60;;;4.50;;
40599;SDS011;26309;50.924;4.754;2023-05-16T04:31:24;25.47;;;4.57;;
40599;SDS011;26309;50.924;4.754;2023-05-16T04:33:50;27.87;;;5.53;;
40599;SDS011;26309;50.924;4.754;2023-05-16T04:36:17;17.50;;;4.13;;
40599;SDS011;26309;50.924;4.754;2023-05-16T04:38:43;18.20;;;4.27;;
40599;SDS011;26309;50.924;4.754;2023-05-16T04:41:11;20.10;;;4.30;;
40599;SDS011;26309;50.924;4.754;2023-05-16T04:43:37;24.13;;;5.00;;
40599;SDS011;26309;50.924;4.754;2023-05-16T04:46:04;19.00;;;4.67;;
40599;SDS011;26309;50.924;4.754;2023-05-16T04:48:31;12.20;;;4.10;;
40599;SDS011;26309;50.924;4.754;2023-05-16T04:50:58;12.53;;;3.97;;
40599;SDS011;26309;50.924;4.754;2023-05-16T04:53:24;10.93;;;4.00;;
40599;SDS011;26309;50.924;4.754;2023-05-16T04:55:51;23.03;;;4.33;;
40599;SDS011;26309;50.924;4.754;2023-05-16T04:58:17;14.50;;;4.20;;
40599;SDS011;26309;50.924;4.754;2023-05-16T05:00:43;17.10;;;4.13;;
40599;SDS011;26309;50.924;4.754;2023-05-16T05:03:09;23.10;;;4.10;;
40599;SDS011;26309;50.924;4.754;2023-05-16T05:05:35;14.90;;;3.60;;
40599;SDS011;26309;50.924;4.754;2023-05-16T05:08:01;15.77;;;3.83;;
40599;SDS011;26309;50.924;4.754;2023-05-16T05:10:28;17.83;;;3.97;;
40599;SDS011;26309;50.924;4.754;2023-05-16T05:12:55;13.60;;;4.10;;
40599;SDS011;26309;50.924;4.754;2023-05-16T05:15:21;12.20;;;3.37;;
40599;SDS011;26309;50.924;4.754;2023-05-16T05:17:47;19.17;;;4.27;;
40599;SDS011;26309;50.924;4.754;2023-05-16T05:20:13;18.40;;;3.43;;
40599;SDS011;26309;50.924;4.754;2023-05-16T05:22:39;12.25;;;3.50;;
40599;SDS011;26309;50.924;4.754;2023-05-16T05:25:05;18.67;;;4.32;;
40599;SDS011;26309;50.924;4.754;2023-05-16T05:27:31;15.68;;;3.13;;
40599;SDS011;26309;50.924;4.754;2023-05-16T05:29:57;15.88;;;3.45;;
40599;SDS011;26309;50.924;4.754;2023-05-16T05:32:23;17.08;;;3.50;;
40599;SDS011;26309;50.924;4.754;2023-05-16T05:34:49;14.75;;;2.70;;
40599;SDS011;26309;50.924;4.754;2023-05-16T05:37:15;14.75;;;3.20;;
40599;SDS011;26309;50.924;4.754;2023-05-16T05:39:40;16.55;;;3.33;;
40599;SDS011;26309;50.924;4.754;2023-05-16T05:42:06;13.60;;;2.80;;
40599;SDS011;26309;50.924;4.754;2023-05-16T05:44:32;11.82;;;3.03;;
40599;SDS011;26309;50.924;4.754;2023-05-16T05:46:59;13.85;;;3.30;;
40599;SDS011;26309;50.924;4.754;2023-05-16T05:49:28;12.43;;;3.38;;
40599;SDS011;26309;50.924;4.754;2023-05-16T05:51:55;14.63;;;3.10;;
40599;SDS011;26309;50.924;4.754;2023-05-16T05:54:21;15.57;;;3.22;;
40599;SDS011;26309;50.924;4.754;2023-05-16T05:56:48;13.70;;;2.95;;
40599;SDS011;26309;50.924;4.754;2023-05-16T05:59:14;16.88;;;3.03;;
40599;SDS011;26309;50.924;4.754;2023-05-16T06:01:40;17.67;;;3.20;;
40599;SDS011;26309;50.924;4.754;2023-05-16T06:04:06;15.38;;;3.42;;
40599;SDS011;26309;50.924;4.754;2023-05-16T06:06:32;10.18;;;2.50;;
40599;SDS011;26309;50.924;4.754;2023-05-16T06:08:58;15.40;;;2.72;;
40599;SDS011;26309;50.924;4.754;2023-05-16T06:11:24;13.70;;;2.90;;
40599;SDS011;26309;50.924;4.754;2023-05-16T06:13:53;16.33;;;3.22;;
40599;SDS011;26309;50.924;4.754;2023-05-16T06:16:18;15.98;;;2.85;;
40599;SDS011;26309;50.924;4.754;2023-05-16T06:18:48;18.98;;;3.28;;
40599;SDS011;26309;50.924;4.754;2023-05-16T06:21:13;14.40;;;3.13;;
40599;SDS011;26309;50.924;4.754;2023-05-16T06:23:39;15.57;;;3.00;;
40599;SDS011;26309;50.924;4.754;2023-05-16T06:26:05;13.63;;;2.85;;
40599;SDS011;26309;50.924;4.754;2023-05-16T06:28:31;17.23;;;2.92;;
40599;SDS011;26309;50.924;4.754;2023-05-16T06:30:57;17.58;;;3.30;;
40599;SDS011;26309;50.924;4.754;2023-05-16T06:33:23;11.85;;;2.97;;
40599;SDS011;26309;50.924;4.754;2023-05-16T06:35:49;12.98;;;2.80;;
40599;SDS011;26309;50.924;4.754;2023-05-16T06:38:15;14.38;;;2.97;;
40599;SDS011;26309;50.924;4.754;2023-05-16T06:40:42;13.98;;;2.55;;
40599;SDS011;26309;50.924;4.754;2023-05-16T06:43:07;15.00;;;2.95;;
40599;SDS011;26309;50.924;4.754;2023-05-16T06:45:33;11.30;;;2.60;;
40599;SDS011;26309;50.924;4.754;2023-05-16T06:47:59;10.05;;;2.42;;
40599;SDS011;26309;50.924;4.754;2023-05-16T06:50:25;14.73;;;2.58;;
40599;SDS011;26309;50.924;4.754;2023-05-16T06:52:51;14.20;;;2.72;;
40599;SDS011;26309;50.924;4.754;2023-05-16T06:55:17;18.15;;;3.15;;
40599;SDS011;26309;50.924;4.754;2023-05-16T06:57:43;16.08;;;3.35;;
40599;SDS011;26309;50.924;4.754;2023-05-16T07:00:09;14.85;;;2.78;;
40599;SDS011;26309;50.924;4.754;2023-05-16T07:02:35;15.57;;;2.70;;
40599;SDS011;26309;50.924;4.754;2023-05-16T07:05:05;7.85;;;2.17;;
40599;SDS011;26309;50.924;4.754;2023-05-16T07:07:31;11.90;;;2.67;;
40599;SDS011;26309;50.924;4.754;2023-05-16T07:09:57;9.23;;;2.40;;
40599;SDS011;26309;50.924;4.754;2023-05-16T07:12:23;15.55;;;2.60;;
40599;SDS011;26309;50.924;4.754;2023-05-16T07:14:49;14.43;;;2.90;;
40599;SDS011;26309;50.924;4.754;2023-05-16T07:17:15;10.82;;;2.70;;
40599;SDS011;26309;50.924;4.754;2023-05-16T07:19:41;12.07;;;2.38;;
40599;SDS011;26309;50.924;4.754;2023-05-16T07:22:07;14.45;;;3.00;;
40599;SDS011;26309;50.924;4.754;2023-05-16T07:24:32;10.07;;;2.25;;
40599;SDS011;26309;50.924;4.754;2023-05-16T07:26:58;20.30;;;2.75;;
40599;SDS011;26309;50.924;4.754;2023-05-16T07:29:24;14.40;;;2.20;;
40599;SDS011;26309;50.924;4.754;2023-05-16T07:31:51;11.77;;;2.38;;
40599;SDS011;26309;50.924;4.754;2023-05-16T07:34:17;5.60;;;1.80;;
40599;SDS011;26309;50.924;4.754;2023-05-16T07:36:43;13.75;;;2.72;;
40599;SDS011;26309;50.924;4.754;2023-05-16T07:39:09;14.23;;;2.47;;
40599;SDS011;26309;50.924;4.754;2023-05-16T07:41:35;9.93;;;2.03;;
40599;SDS011;26309;50.924;4.754;2023-05-16T07:44:08;8.73;;;1.60;;
40599;SDS011;26309;50.924;4.754;2023-05-16T07:46:35;5.85;;;1.80;;
40599;SDS011;26309;50.924;4.754;2023-05-16T07:49:00;5.40;;;1.60;;
40599;SDS011;26309;50.924;4.754;2023-05-16T07:51:26;7.95;;;1.88;;
40599;SDS011;26309;50.924;4.754;2023-05-16T07:53:52;12.25;;;2.15;;
40599;SDS011;26309;50.924;4.754;2023-05-16T07:56:18;10.00;;;1.85;;
40599;SDS011;26309;50.924;4.754;2023-05-16T07:58:44;7.80;;;1.90;;
40599;SDS011;26309;50.924;4.754;2023-05-16T08:01:12;7.10;;;2.30;;
40599;SDS011;26309;50.924;4.754;2023-05-16T08:03:38;6.07;;;1.92;;
40599;SDS011;26309;50.924;4.754;2023-05-16T08:06:04;10.68;;;1.90;;
40599;SDS011;26309;50.924;4.754;2023-05-16T08:08:30;6.40;;;2.00;;
40599;SDS011;26309;50.924;4.754;2023-05-16T08:10:56;6.72;;;2.13;;
40599;SDS011;26309;50.924;4.754;2023-05-16T08:13:22;10.43;;;1.92;;
40599;SDS011;26309;50.924;4.754;2023-05-16T08:15:48;10.15;;;1.98;;
40599;SDS011;26309;50.924;4.754;2023-05-16T08:18:14;10.45;;;2.58;;
40599;SDS011;26309;50.924;4.754;2023-05-16T08:20:41;9.25;;;1.90;;
40599;SDS011;26309;50.924;4.754;2023-05-16T08:23:07;9.55;;;2.08;;
40599;SDS011;26309;50.924;4.754;2023-05-16T08:25:33;8.52;;;2.17;;
40599;SDS011;26309;50.924;4.754;2023-05-16T08:28:00;12.18;;;2.22;;
40599;SDS011;26309;50.924;4.754;2023-05-16T08:30:26;7.75;;;2.05;;
40599;SDS011;26309;50.924;4.754;2023-05-16T08:32:53;9.30;;;1.92;;
40599;SDS011;26309;50.924;4.754;2023-05-16T08:35:19;5.90;;;1.80;;
40599;SDS011;26309;50.924;4.754;2023-05-16T08:37:45;6.65;;;1.80;;
40599;SDS011;26309;50.924;4.754;2023-05-16T08:40:11;11.02;;;2.60;;
40599;SDS011;26309;50.924;4.754;2023-05-16T08:42:38;6.28;;;2.00;;
40599;SDS011;26309;50.924;4.754;2023-05-16T08:45:05;6.57;;;1.92;;
40599;SDS011;26309;50.924;4.754;2023-05-16T08:47:32;9.27;;;1.98;;
40599;SDS011;26309;50.924;4.754;2023-05-16T08:50:02;9.23;;;2.05;;
40599;SDS011;26309;50.924;4.754;2023-05-16T08:52:30;9.63;;;2.15;;
40599;SDS011;26309;50.924;4.754;2023-05-16T08:55:01;5.55;;;1.83;;
40599;SDS011;26309;50.924;4.754;2023-05-16T08:57:35;8.32;;;1.70;;
40599;SDS011;26309;50.924;4.754;2023-05-16T09:00:02;9.25;;;1.98;;
40599;SDS011;26309;50.924;4.754;2023-05-16T09:02:39;7.82;;;2.08;;
40599;SDS011;26309;50.924;4.754;2023-05-16T09:05:07;6.20;;;1.80;;
40599;SDS011;26309;50.924;4.754;2023-05-16T09:07:35;9.07;;;1.80;;
40599;SDS011;26309;50.924;4.754;2023-05-16T09:10:01;5.75;;;1.75;;
40599;SDS011;26309;50.924;4.754;2023-05-16T09:12:27;8.75;;;2.03;;
40599;SDS011;26309;50.924;4.754;2023-05-16T09:14:53;4.38;;;1.55;;
40599;SDS011;26309;50.924;4.754;2023-05-16T09:17:20;11.90;;;2.30;;
40599;SDS011;26309;50.924;4.754;2023-05-16T09:19:49;11.45;;;1.90;;
40599;SDS011;26309;50.924;4.754;2023-05-16T09:22:17;7.00;;;1.83;;
40599;SDS011;26309;50.924;4.754;2023-05-16T09:24:43;9.23;;;2.00;;
40599;SDS011;26309;50.924;4.754;2023-05-16T09:27:10;8.70;;;1.95;;
40599;SDS011;26309;50.924;4.754;2023-05-16T09:29:43;8.13;;;1.80;;
40599;SDS011;26309;50.924;4.754;2023-05-16T09:32:14;6.25;;;1.70;;
40599;SDS011;26309;50.924;4.754;2023-05-16T09:34:45;11.60;;;1.67;;
40599;SDS011;26309;50.924;4.754;2023-05-16T09:37:16;7.25;;;1.65;;
40599;SDS011;26309;50.924;4.754;2023-05-16T09:39:47;7.35;;;1.98;;
40599;SDS011;26309;50.924;4.754;2023-05-16T09:42:18;6.32;;;1.67;;
40599;SDS011;26309;50.924;4.754;2023-05-16T09:44:51;8.90;;;1.90;;
40599;SDS011;26309;50.924;4.754;2023-05-16T09:47:19;6.35;;;2.25;;
40599;SDS011;26309;50.924;4.754;2023-05-16T09:49:46;5.60;;;1.58;;
40599;SDS011;26309;50.924;4.754;2023-05-16T09:52:17;7.28;;;2.03;;
40599;SDS011;26309;50.924;4.754;2023-05-16T09:54:44;7.63;;;1.98;;
40599;SDS011;26309;50.924;4.754;2023-05-16T09:57:20;8.45;;;1.95;;
40599;SDS011;26309;50.924;4.754;2023-05-16T09:59:47;5.05;;;1.83;;
40599;SDS011;26309;50.924;4.754;2023-05-16T10:02:15;7.35;;;1.95;;
40599;SDS011;26309;50.924;4.754;2023-05-16T10:04:42;8.88;;;1.75;;
40599;SDS011;26309;50.924;4.754;2023-05-16T10:07:07;5.30;;;2.13;;
40599;SDS011;26309;50.924;4.754;2023-05-16T10:09:34;6.60;;;1.50;;
40599;SDS011;26309;50.924;4.754;2023-05-16T10:12:01;5.90;;;1.60;;
40599;SDS011;26309;50.924;4.754;2023-05-16T10:14:34;10.85;;;1.98;;
40599;SDS011;26309;50.924;4.754;2023-05-16T10:17:05;7.35;;;1.75;;
40599;SDS011;26309;50.924;4.754;2023-05-16T10:19:35;5.72;;;1.48;;
40599;SDS011;26309;50.924;4.754;2023-05-16T10:22:03;5.85;;;1.70;;
40599;SDS011;26309;50.924;4.754;2023-05-16T10:25:14;6.68;;;1.65;;
40599;SDS011;26309;50.924;4.754;2023-05-16T10:27:20;6.68;;;1.40;;
40599;SDS011;26309;50.924;4.754;2023-05-16T10:29:47;4.43;;;1.58;;
40599;SDS011;26309;50.924;4.754;2023-05-16T10:32:14;4.63;;;1.35;;
40599;SDS011;26309;50.924;4.754;2023-05-16T10:34:41;6.93;;;1.70;;
40599;SDS011;26309;50.924;4.754;2023-05-16T10:37:08;4.75;;;1.65;;
40599;SDS011;26309;50.924;4.754;2023-05-16T10:39:34;9.38;;;1.90;;
40599;SDS011;26309;50.924;4.754;2023-05-16T10:42:02;6.28;;;1.50;;
40599;SDS011;26309;50.924;4.754;2023-05-16T10:44:30;2.88;;;1.42;;
40599;SDS011;26309;50.924;4.754;2023-05-16T10:46:58;6.72;;;1.50;;
40599;SDS011;26309;50.924;4.754;2023-05-16T10:49:25;5.20;;;1.52;;
40599;SDS011;26309;50.924;4.754;2023-05-16T10:54:58;4.32;;;1.70;;
40599;SDS011;26309;50.924;4.754;2023-05-16T10:57:28;8.32;;;1.80;;
40599;SDS011;26309;50.924;4.754;2023-05-16T10:59:58;3.30;;;1.42;;
40599;SDS011;26309;50.924;4.754;2023-05-16T11:02:27;8.60;;;1.35;;
40599;SDS011;26309;50.924;4.754;2023-05-16T11:04:55;6.40;;;1.50;;
40599;SDS011;26309;50.924;4.754;2023-05-16T11:07:23;7.65;;;1.55;;
40599;SDS011;26309;50.924;4.754;2023-05-16T11:10:10;3.35;;;1.35;;
40599;SDS011;26309;50.924;4.754;2023-05-16T11:12:44;5.32;;;1.80;;
40599;SDS011;26309;50.924;4.754;2023-05-16T11:15:19;9.40;;;1.65;;
40599;SDS011;26309;50.924;4.754;2023-05-16T11:18:02;4.35;;;1.52;;
40599;SDS011;26309;50.924;4.754;2023-05-16T11:20:32;4.78;;;1.60;;
40599;SDS011;26309;50.924;4.754;2023-05-16T11:25:42;4.05;;;1.40;;
40599;SDS011;26309;50.924;4.754;2023-05-16T11:28:12;9.05;;;1.83;;
40599;SDS011;26309;50.924;4.754;2023-05-16T11:30:48;8.98;;;2.00;;
40599;SDS011;26309;50.924;4.754;2023-05-16T11:33:16;6.32;;;1.58;;
40599;SDS011;26309;50.924;4.754;2023-05-16T11:35:43;5.20;;;1.58;;
40599;SDS011;26309;50.924;4.754;2023-05-16T11:38:25;4.85;;;1.70;;
40599;SDS011;26309;50.924;4.754;2023-05-16T11:40:53;7.88;;;1.50;;
40599;SDS011;26309;50.924;4.754;2023-05-16T11:43:25;7.57;;;1.60;;
40599;SDS011;26309;50.924;4.754;2023-05-16T11:45:53;5.13;;;1.55;;
40599;SDS011;26309;50.924;4.754;2023-05-16T11:48:24;6.95;;;1.60;;
40599;SDS011;26309;50.924;4.754;2023-05-16T11:50:50;5.28;;;1.50;;
40599;SDS011;26309;50.924;4.754;2023-05-16T11:53:18;4.53;;;2.28;;
40599;SDS011;26309;50.924;4.754;2023-05-16T11:55:44;4.63;;;1.83;;
40599;SDS011;26309;50.924;4.754;2023-05-16T11:58:17;5.47;;;1.60;;
40599;SDS011;26309;50.924;4.754;2023-05-16T12:00:51;5.40;;;1.73;;
40599;SDS011;26309;50.924;4.754;2023-05-16T12:03:17;4.65;;;1.52;;
40599;SDS011;26309;50.924;4.754;2023-05-16T12:05:54;6.55;;;1.70;;
40599;SDS011;26309;50.924;4.754;2023-05-16T12:08:25;8.95;;;1.88;;
40599;SDS011;26309;50.924;4.754;2023-05-16T12:10:51;6.93;;;2.00;;
40599;SDS011;26309;50.924;4.754;2023-05-16T12:13:21;3.90;;;1.40;;
40599;SDS011;26309;50.924;4.754;2023-05-16T12:15:48;4.28;;;1.50;;
40599;SDS011;26309;50.924;4.754;2023-05-16T12:18:16;5.78;;;1.40;;
40599;SDS011;26309;50.924;4.754;2023-05-16T12:20:43;5.38;;;1.42;;
40599;SDS011;26309;50.924;4.754;2023-05-16T12:23:12;5.55;;;1.73;;
40599;SDS011;26309;50.924;4.754;2023-05-16T12:25:39;6.75;;;1.75;;
40599;SDS011;26309;50.924;4.754;2023-05-16T12:28:13;5.13;;;1.80;;
40599;SDS011;26309;50.924;4.754;2023-05-16T12:30:41;6.78;;;1.83;;
40599;SDS011;26309;50.924;4.754;2023-05-16T12:35:37;6.82;;;1.70;;
40599;SDS011;26309;50.924;4.754;2023-05-16T12:38:08;7.13;;;1.70;;
40599;SDS011;26309;50.924;4.754;2023-05-16T12:40:39;3.45;;;1.60;;
40599;SDS011;26309;50.924;4.754;2023-05-16T12:43:15;5.97;;;1.70;;
40599;SDS011;26309;50.924;4.754;2023-05-16T12:45:53;6.18;;;1.60;;
40599;SDS011;26309;50.924;4.754;2023-05-16T12:48:22;6.80;;;1.90;;
40599;SDS011;26309;50.924;4.754;2023-05-16T12:50:54;6.93;;;1.40;;
40599;SDS011;26309;50.924;4.754;2023-05-16T12:53:20;3.75;;;1.60;;
40599;SDS011;26309;50.924;4.754;2023-05-16T12:55:46;5.45;;;1.52;;
40599;SDS011;26309;50.924;4.754;2023-05-16T12:58:12;5.10;;;1.80;;
40599;SDS011;26309;50.924;4.754;2023-05-16T13:00:38;6.03;;;1.73;;
40599;SDS011;26309;50.924;4.754;2023-05-16T13:03:04;7.93;;;1.60;;
40599;SDS011;26309;50.924;4.754;2023-05-16T13:05:31;4.07;;;1.67;;
40599;SDS011;26309;50.924;4.754;2023-05-16T13:07:57;7.53;;;1.67;;
40599;SDS011;26309;50.924;4.754;2023-05-16T13:10:23;4.53;;;1.65;;
40599;SDS011;26309;50.924;4.754;2023-05-16T13:12:50;4.78;;;1.80;;
40599;SDS011;26309;50.924;4.754;2023-05-16T13:15:17;5.78;;;1.60;;
40599;SDS011;26309;50.924;4.754;2023-05-16T13:17:43;7.55;;;1.80;;
40599;SDS011;26309;50.924;4.754;2023-05-16T13:20:09;4.43;;;1.52;;
40599;SDS011;26309;50.924;4.754;2023-05-16T13:22:42;8.38;;;1.65;;
40599;SDS011;26309;50.924;4.754;2023-05-16T13:25:09;8.77;;;1.75;;
40599;SDS011;26309;50.924;4.754;2023-05-16T13:27:35;4.15;;;1.80;;
40599;SDS011;26309;50.924;4.754;2023-05-16T13:30:01;5.00;;;1.70;;
40599;SDS011;26309;50.924;4.754;2023-05-16T13:32:31;11.48;;;1.77;;
40599;SDS011;26309;50.924;4.754;2023-05-16T13:34:57;4.45;;;1.65;;
40599;SDS011;26309;50.924;4.754;2023-05-16T13:37:23;3.55;;;1.60;;
40599;SDS011;26309;50.924;4.754;2023-05-16T13:39:49;6.20;;;1.90;;
40599;SDS011;26309;50.924;4.754;2023-05-16T13:42:15;4.03;;;1.48;;
40599;SDS011;26309;50.924;4.754;2023-05-16T13:44:40;5.05;;;1.70;;
40599;SDS011;26309;50.924;4.754;2023-05-16T13:47:07;7.15;;;1.95;;
40599;SDS011;26309;50.924;4.754;2023-05-16T13:49:33;7.13;;;1.98;;
40599;SDS011;26309;50.924;4.754;2023-05-16T13:52:00;4.65;;;2.00;;
40599;SDS011;26309;50.924;4.754;2023-05-16T13:54:26;6.18;;;1.88;;
40599;SDS011;26309;50.924;4.754;2023-05-16T13:56:52;7.60;;;1.75;;
40599;SDS011;26309;50.924;4.754;2023-05-16T13:59:18;6.32;;;1.80;;
40599;SDS011;26309;50.924;4.754;2023-05-16T14:01:44;3.17;;;1.30;;
40599;SDS011;26309;50.924;4.754;2023-05-16T14:04:10;4.70;;;1.80;;
40599;SDS011;26309;50.924;4.754;2023-05-16T14:06:36;5.80;;;1.73;;
40599;SDS011;26309;50.924;4.754;2023-05-16T14:09:03;4.78;;;1.90;;
40599;SDS011;26309;50.924;4.754;2023-05-16T14:11:29;6.30;;;1.90;;
40599;SDS011;26309;50.924;4.754;2023-05-16T14:13:55;6.45;;;2.20;;
40599;SDS011;26309;50.924;4.754;2023-05-16T14:16:21;4.07;;;1.88;;
40599;SDS011;26309;50.924;4.754;2023-05-16T14:18:47;9.45;;;1.85;;
40599;SDS011;26309;50.924;4.754;2023-05-16T14:21:13;3.28;;;1.60;;
40599;SDS011;26309;50.924;4.754;2023-05-16T14:23:39;7.15;;;1.52;;
40599;SDS011;26309;50.924;4.754;2023-05-16T14:26:05;6.15;;;1.88;;
40599;SDS011;26309;50.924;4.754;2023-05-16T14:28:31;5.18;;;1.73;;
40599;SDS011;26309;50.924;4.754;2023-05-16T14:30:58;6.78;;;2.00;;
40599;SDS011;26309;50.924;4.754;2023-05-16T14:33:24;6.72;;;1.80;;
40599;SDS011;26309;50.924;4.754;2023-05-16T14:35:50;5.80;;;1.60;;
40599;SDS011;26309;50.924;4.754;2023-05-16T14:38:17;6.43;;;1.40;;
40599;SDS011;26309;50.924;4.754;2023-05-16T14:40:43;7.43;;;1.70;;
40599;SDS011;26309;50.924;4.754;2023-05-16T14:43:09;4.35;;;1.33;;
40599;SDS011;26309;50.924;4.754;2023-05-16T14:45:36;4.25;;;1.35;;
40599;SDS011;26309;50.924;4.754;2023-05-16T14:48:04;4.53;;;1.63;;
40599;SDS011;26309;50.924;4.754;2023-05-16T14:50:31;9.00;;;1.60;;
40599;SDS011;26309;50.924;4.754;2023-05-16T14:52:57;6.88;;;1.70;;
40599;SDS011;26309;50.924;4.754;2023-05-16T14:55:22;6.72;;;1.60;;
40599;SDS011;26309;50.924;4.754;2023-05-16T14:57:48;5.68;;;1.33;;
40599;SDS011;26309;50.924;4.754;2023-05-16T15:00:15;7.72;;;1.83;;
40599;SDS011;26309;50.924;4.754;2023-05-16T15:02:41;5.43;;;1.48;;